createdAt,value
2023-05-04T00:00:08.589Z,13.93
2023-05-04T00:02:10.424Z,16.63
2023-05-04T00:04:12.760Z,9.05
2023-05-04T00:06:15.203Z,13.95
2023-05-04T00:08:17.776Z,16.85
2023-05-04T00:10:19.907Z,10.70
2023-05-04T00:12:21.726Z,13.43
2023-05-04T00:14:23.492Z,17.02
2023-05-04T00:16:26.162Z,17.58
2023-05-04T00:18:27.889Z,12.32
2023-05-04T00:20:29.583Z,17.23
2023-05-04T00:22:31.600Z,16.17
2023-05-04T00:24:33.531Z,17.33
2023-05-04T00:26:37.565Z,14.38
2023-05-04T00:28:39.531Z,23.25
2023-05-04T00:30:41.566Z,16.35
2023-05-04T00:32:43.698Z,13.38
2023-05-04T00:34:45.712Z,16.70
2023-05-04T00:36:47.446Z,15.45
2023-05-04T00:38:51.874Z,14.05
2023-05-04T00:40:53.744Z,16.52
2023-05-04T00:42:55.724Z,21.30
2023-05-04T00:44:57.511Z,15.15
2023-05-04T00:46:59.423Z,18.20
2023-05-04T00:49:02.467Z,18.00
2023-05-04T00:51:04.781Z,16.10
2023-05-04T00:53:10.810Z,18.92
2023-05-04T00:55:14.572Z,14.75
2023-05-04T00:57:17.420Z,14.18
2023-05-04T00:59:19.996Z,22.00
2023-05-04T01:01:22.485Z,16.50
2023-05-04T01:03:26.259Z,17.55
2023-05-04T01:05:34.756Z,18.73
2023-05-04T01:07:56.794Z,17.50
2023-05-04T01:10:04.082Z,29.02
2023-05-04T01:12:18.242Z,14.50
2023-05-04T01:14:22.278Z,19.92
2023-05-04T01:16:24.086Z,17.27
2023-05-04T01:18:26.392Z,14.57
2023-05-04T01:20:28.525Z,17.88
2023-05-04T01:22:32.623Z,19.42
2023-05-04T01:24:34.660Z,14.68
2023-05-04T01:26:41.807Z,15.07
2023-05-04T01:28:59.698Z,18.25
2023-05-04T01:31:02.818Z,11.40
2023-05-04T01:33:04.931Z,21.90
2023-05-04T01:35:08.179Z,16.42
2023-05-04T01:37:10.516Z,18.77
2023-05-04T01:39:12.279Z,23.75
2023-05-04T01:41:14.015Z,18.80
2023-05-04T01:43:15.754Z,21.33
2023-05-04T01:45:17.499Z,20.70
2023-05-04T01:47:19.228Z,15.90
2023-05-04T01:49:20.948Z,14.98
2023-05-04T01:51:22.673Z,17.40
2023-05-04T01:53:24.632Z,24.02
2023-05-04T01:55:26.460Z,17.95
2023-05-04T01:57:28.440Z,29.33
2023-05-04T01:59:30.618Z,20.52
2023-05-04T02:01:32.337Z,23.02
2023-05-04T02:03:34.167Z,16.17
2023-05-04T02:05:36.319Z,19.25
2023-05-04T02:07:38.145Z,19.27
2023-05-04T02:09:39.975Z,24.52
2023-05-04T02:11:43.400Z,22.60
2023-05-04T02:13:45.155Z,21.17
2023-05-04T02:15:49.462Z,17.80
2023-05-04T02:17:51.378Z,25.80
2023-05-04T02:19:53.163Z,21.15
2023-05-04T02:21:54.861Z,18.48
2023-05-04T02:23:56.627Z,17.48
2023-05-04T02:25:58.399Z,20.08
2023-05-04T02:28:00.212Z,23.95
2023-05-04T02:30:01.995Z,18.98
2023-05-04T02:32:04.117Z,15.77
2023-05-04T02:34:06.137Z,24.35
2023-05-04T02:36:10.903Z,19.67
2023-05-04T02:38:12.634Z,17.63
2023-05-04T02:40:14.446Z,18.33
2023-05-04T02:42:16.440Z,20.15
2023-05-04T02:44:18.132Z,22.25
2023-05-04T02:46:20.255Z,28.60
2023-05-04T02:48:22.063Z,28.20
2023-05-04T02:50:23.888Z,24.98
2023-05-04T02:52:25.695Z,22.67
2023-05-04T02:54:27.556Z,21.58
2023-05-04T02:56:29.252Z,23.83
2023-05-04T02:58:31.028Z,21.38
2023-05-04T03:00:32.845Z,17.65
2023-05-04T03:02:34.937Z,19.02
2023-05-04T03:04:37.116Z,22.23
2023-05-04T03:06:39.338Z,15.98
2023-05-04T03:08:41.592Z,25.80
2023-05-04T03:10:43.701Z,21.15
2023-05-04T03:12:45.659Z,24.13
2023-05-04T03:14:47.410Z,19.10
2023-05-04T03:16:49.459Z,29.70
2023-05-04T03:21:10.914Z,23.42
2023-05-04T03:23:12.622Z,20.83
2023-05-04T03:25:14.497Z,21.25
2023-05-04T03:27:16.356Z,23.67
2023-05-04T03:29:18.268Z,16.38
2023-05-04T03:31:20.053Z,19.73
2023-05-04T03:33:21.829Z,22.50
2023-05-04T03:35:24.889Z,25.17
2023-05-04T03:37:27.147Z,23.02
2023-05-04T03:39:28.929Z,25.05
2023-05-04T03:41:30.828Z,23.20
2023-05-04T03:43:32.850Z,24.27
2023-05-04T03:45:34.652Z,27.13
2023-05-04T03:47:36.491Z,25.23
2023-05-04T03:49:38.224Z,22.95
2023-05-04T03:51:40.172Z,27.13
2023-05-04T03:53:43.420Z,26.60
2023-05-04T03:55:46.535Z,26.73
2023-05-04T03:57:48.207Z,28.35
2023-05-04T03:59:50.920Z,25.73
2023-05-04T04:01:53.490Z,23.85
2023-05-04T04:03:55.533Z,22.63
2023-05-04T04:05:57.755Z,24.25
2023-05-04T04:07:59.590Z,28.27
2023-05-04T04:10:01.345Z,22.92
2023-05-04T04:12:03.256Z,21.70
2023-05-04T04:14:08.164Z,26.73
2023-05-04T04:16:09.981Z,27.58
2023-05-04T04:18:11.752Z,26.35
2023-05-04T04:20:14.036Z,26.13
2023-05-04T04:22:15.796Z,24.27
2023-05-04T04:24:17.508Z,29.15
2023-05-04T04:26:20.512Z,26.00
2023-05-04T04:28:22.238Z,19.98
2023-05-04T04:30:23.980Z,26.95
2023-05-04T04:32:25.798Z,28.17
2023-05-04T04:34:27.557Z,21.67
2023-05-04T04:36:29.587Z,28.75
2023-05-04T04:38:31.509Z,23.23
2023-05-04T04:40:33.303Z,26.00
2023-05-04T04:42:35.075Z,23.17
2023-05-04T04:44:37.550Z,23.05
2023-05-04T04:46:39.296Z,25.58
2023-05-04T04:48:41.459Z,25.27
2023-05-04T04:50:43.177Z,25.27
2023-05-04T04:52:45.945Z,27.58
2023-05-04T04:54:47.606Z,29.95
2023-05-04T04:56:49.393Z,21.10
2023-05-04T04:58:52.068Z,27.90
2023-05-04T05:00:58.489Z,21.35
2023-05-04T05:03:03.346Z,32.90
2023-05-04T05:05:06.025Z,26.38
2023-05-04T05:07:09.034Z,29.02
2023-05-04T05:09:11.846Z,29.05
2023-05-04T05:11:13.555Z,24.92
2023-05-04T05:13:15.331Z,26.95
2023-05-04T05:15:17.277Z,26.00
2023-05-04T05:17:20.208Z,27.75
2023-05-04T05:19:22.106Z,27.50
2023-05-04T05:21:24.002Z,29.17
2023-05-04T05:23:25.685Z,24.13
2023-05-04T05:25:28.060Z,26.73
2023-05-04T05:27:29.926Z,24.35
2023-05-04T05:29:31.713Z,29.38
2023-05-04T05:31:33.714Z,30.63
2023-05-04T05:33:35.551Z,30.02
2023-05-04T05:35:37.275Z,31.58
2023-05-04T05:37:39.089Z,27.90
2023-05-04T05:39:42.772Z,26.95
2023-05-04T05:41:47.056Z,26.77
2023-05-04T05:43:48.754Z,29.20
2023-05-04T05:45:50.676Z,27.15
2023-05-04T05:47:52.559Z,25.65
2023-05-04T05:49:54.708Z,30.08
2023-05-04T05:51:56.687Z,28.13
2023-05-04T05:54:04.001Z,32.53
2023-05-04T05:56:06.529Z,29.35
2023-05-04T05:58:08.773Z,25.48
2023-05-04T06:00:12.788Z,33.15
2023-05-04T06:02:17.586Z,31.75
2023-05-04T06:04:19.646Z,27.90
2023-05-04T06:06:21.546Z,23.33
2023-05-04T06:08:23.338Z,28.17
2023-05-04T06:10:25.258Z,25.15
2023-05-04T06:12:27.096Z,29.98
2023-05-04T06:14:29.011Z,27.33
2023-05-04T06:16:30.902Z,28.63
2023-05-04T06:18:33.011Z,28.58
2023-05-04T06:20:35.083Z,31.80
2023-05-04T06:22:36.971Z,28.35
2023-05-04T06:24:38.857Z,34.08
2023-05-04T06:26:40.839Z,28.20
2023-05-04T06:28:42.829Z,26.92
2023-05-04T06:30:45.206Z,28.25
2023-05-04T06:32:47.307Z,22.85
2023-05-04T06:34:52.979Z,31.63
2023-05-04T06:36:55.231Z,24.60
2023-05-04T06:38:58.379Z,31.60
2023-05-04T06:41:00.286Z,27.45
2023-05-04T06:43:04.633Z,27.42
2023-05-04T06:45:07.454Z,29.95
2023-05-04T06:47:09.432Z,22.13
2023-05-04T06:49:12.425Z,23.83
2023-05-04T06:51:14.644Z,31.70
2023-05-04T06:53:19.785Z,22.05
2023-05-04T06:55:21.833Z,26.55
2023-05-04T06:57:23.907Z,32.33
2023-05-04T06:59:26.375Z,26.83
2023-05-04T07:01:28.631Z,28.88
2023-05-04T07:03:30.905Z,23.95
2023-05-04T07:05:38.680Z,26.10
2023-05-04T07:07:40.773Z,29.25
2023-05-04T07:09:44.094Z,24.55
2023-05-04T07:11:46.589Z,33.50
2023-05-04T07:13:48.842Z,19.65
2023-05-04T07:15:53.404Z,24.25
2023-05-04T07:17:55.413Z,23.33
2023-05-04T07:19:57.509Z,30.95
2023-05-04T07:22:00.568Z,21.15
2023-05-04T07:24:02.849Z,23.92
2023-05-04T07:26:05.322Z,23.08
2023-05-04T07:28:07.426Z,21.40
2023-05-04T07:30:09.735Z,22.85
2023-05-04T07:32:11.891Z,23.10
2023-05-04T07:34:13.945Z,27.48
2023-05-04T07:36:15.989Z,21.55
2023-05-04T07:38:17.914Z,23.25
2023-05-04T07:40:20.446Z,23.75
2023-05-04T07:42:23.672Z,23.30
2023-05-04T07:44:25.647Z,21.70
2023-05-04T07:46:27.490Z,25.50
2023-05-04T07:48:29.333Z,24.83
2023-05-04T07:50:31.566Z,17.92
2023-05-04T07:52:33.531Z,26.10
2023-05-04T07:54:36.531Z,22.75
2023-05-04T07:56:38.839Z,23.77
2023-05-04T07:58:41.687Z,24.55
2023-05-04T08:00:43.742Z,23.67
2023-05-04T08:02:46.338Z,25.73
2023-05-04T08:04:48.516Z,21.55
2023-05-04T08:06:51.044Z,23.05
2023-05-04T08:08:53.129Z,22.38
2023-05-04T08:11:02.025Z,23.10
2023-05-04T08:13:10.527Z,20.27
2023-05-04T08:15:12.735Z,17.77
2023-05-04T08:17:14.584Z,21.17
2023-05-04T08:19:16.447Z,26.27
2023-05-04T08:21:18.658Z,20.85
2023-05-04T08:23:20.629Z,23.10
2023-05-04T08:25:22.893Z,18.75
2023-05-04T08:27:24.750Z,27.38
2023-05-04T08:29:26.723Z,18.67
2023-05-04T08:31:28.739Z,26.98
2023-05-04T08:33:33.669Z,27.67
2023-05-04T08:35:35.837Z,27.08
2023-05-04T08:37:38.159Z,19.35
2023-05-04T08:39:41.966Z,24.50
2023-05-04T08:41:44.519Z,22.05
2023-05-04T08:43:46.919Z,25.67
2023-05-04T08:45:49.856Z,21.92
2023-05-04T08:47:52.208Z,18.85
2023-05-04T08:49:57.359Z,23.02
2023-05-04T08:52:00.733Z,19.63
2023-05-04T08:54:07.352Z,25.58
2023-05-04T08:56:12.573Z,19.85
2023-05-04T08:58:17.576Z,23.52
2023-05-04T09:00:20.772Z,29.77
2023-05-04T09:02:24.425Z,24.15
2023-05-04T09:04:29.225Z,15.82
2023-05-04T09:06:32.210Z,18.73
2023-05-04T09:08:34.732Z,17.48
2023-05-04T09:10:37.045Z,21.05
2023-05-04T09:12:39.069Z,26.02
2023-05-04T09:14:41.635Z,19.73
2023-05-04T09:16:46.932Z,22.27
2023-05-04T09:18:49.255Z,26.27
2023-05-04T09:20:53.738Z,17.90
2023-05-04T09:23:08.218Z,18.75
2023-05-04T09:25:12.458Z,15.50
2023-05-04T09:27:18.415Z,24.52
2023-05-04T09:29:22.293Z,19.08
2023-05-04T09:31:25.456Z,18.67
2023-05-04T09:33:28.155Z,16.40
2023-05-04T09:35:33.632Z,16.92
2023-05-04T09:37:45.816Z,28.67
2023-05-04T09:40:00.364Z,21.48
2023-05-04T09:42:02.891Z,14.57
2023-05-04T09:44:05.508Z,21.17
2023-05-04T09:46:08.991Z,17.60
2023-05-04T09:48:22.436Z,21.48
2023-05-04T09:50:26.787Z,25.65
2023-05-04T09:52:32.478Z,22.52
2023-05-04T09:54:36.503Z,15.95
2023-05-04T09:56:49.990Z,16.50
2023-05-04T09:58:53.157Z,21.45
2023-05-04T10:00:55.511Z,20.05
2023-05-04T10:02:58.209Z,19.30
2023-05-04T10:05:04.498Z,18.00
2023-05-04T10:07:07.321Z,15.05
2023-05-04T10:09:10.374Z,21.23
2023-05-04T10:11:18.979Z,19.02
2023-05-04T10:13:21.284Z,13.52
2023-05-04T10:15:25.281Z,16.48
2023-05-04T10:17:46.732Z,20.10
2023-05-04T10:20:20.821Z,17.48
2023-05-04T10:22:32.925Z,16.20
2023-05-04T10:24:36.726Z,14.93
2023-05-04T10:26:59.929Z,21.23
2023-05-04T10:29:12.557Z,14.10
2023-05-04T10:31:14.952Z,15.98
2023-05-04T10:33:17.135Z,18.92
2023-05-04T10:35:20.388Z,13.80
2023-05-04T10:37:23.020Z,24.80
2023-05-04T10:39:33.745Z,15.75
2023-05-04T10:43:38.246Z,9.90
2023-05-04T10:45:42.296Z,15.65
2023-05-04T10:47:44.610Z,22.73
2023-05-04T10:49:47.326Z,14.35
2023-05-04T10:51:49.900Z,18.63
2023-05-04T10:53:53.187Z,15.07
2023-05-04T10:55:55.249Z,14.55
2023-05-04T10:57:58.371Z,13.35
2023-05-04T11:00:04.655Z,13.35
2023-05-04T11:02:07.885Z,13.07
2023-05-04T11:04:20.331Z,12.60
2023-05-04T11:06:24.371Z,18.92
2023-05-04T11:08:27.677Z,12.75
2023-05-04T11:10:29.955Z,13.50
2023-05-04T11:12:33.341Z,13.20
2023-05-04T11:14:41.534Z,16.13
2023-05-04T11:16:43.891Z,14.50
2023-05-04T11:18:46.092Z,12.63
2023-05-04T11:20:48.254Z,15.15
2023-05-04T11:22:51.152Z,18.30
2023-05-04T11:24:54.972Z,17.15
2023-05-04T11:26:58.667Z,12.07
2023-05-04T11:29:00.976Z,12.77
2023-05-04T11:31:19.922Z,12.27
2023-05-04T11:33:22.180Z,20.38
2023-05-04T11:35:25.273Z,15.80
2023-05-04T11:37:29.674Z,16.75
2023-05-04T11:39:33.742Z,11.18
2023-05-04T11:41:36.754Z,14.55
2023-05-04T11:43:42.503Z,13.38
2023-05-04T11:45:48.271Z,15.98
2023-05-04T11:47:51.866Z,13.65
2023-05-04T11:50:10.192Z,14.30
2023-05-04T11:52:12.656Z,13.13
2023-05-04T11:54:22.665Z,9.43
2023-05-04T11:56:25.189Z,12.90
2023-05-04T11:58:28.041Z,17.17
2023-05-04T12:00:40.887Z,13.23
2023-05-04T12:02:43.449Z,9.45
2023-05-04T12:04:45.615Z,12.52
2023-05-04T12:06:47.929Z,14.57
2023-05-04T12:08:50.194Z,12.20
2023-05-04T12:11:25.831Z,17.27
2023-05-04T12:13:28.494Z,19.00
2023-05-04T12:15:32.970Z,15.18
2023-05-04T12:17:44.319Z,11.32
2023-05-04T12:19:57.457Z,14.05
2023-05-04T12:21:59.931Z,14.90
2023-05-04T12:24:02.654Z,16.27
2023-05-04T12:26:05.261Z,16.73
2023-05-04T12:28:08.034Z,18.13
2023-05-04T12:30:11.293Z,12.13
2023-05-04T12:32:13.485Z,13.60
2023-05-04T12:34:15.941Z,27.33
2023-05-04T12:36:18.976Z,21.23
2023-05-04T12:38:21.344Z,29.48
2023-05-04T12:40:28.634Z,17.65
2023-05-04T12:42:32.209Z,12.75
2023-05-04T12:44:34.817Z,17.08
2023-05-04T12:46:37.710Z,15.65
2023-05-04T12:48:43.085Z,14.90
2023-05-04T12:50:46.201Z,16.95
2023-05-04T12:52:48.986Z,15.20
2023-05-04T12:54:51.369Z,13.13
2023-05-04T12:56:53.695Z,12.02
2023-05-04T12:58:56.891Z,15.20
2023-05-04T13:01:00.106Z,16.58
2023-05-04T13:03:04.018Z,15.32
2023-05-04T13:05:08.274Z,20.35
2023-05-04T13:07:10.906Z,21.33
2023-05-04T13:09:14.204Z,21.10
2023-05-04T13:11:19.509Z,23.63
2023-05-04T13:13:26.563Z,19.60
2023-05-04T13:15:29.057Z,25.15
2023-05-04T13:17:34.275Z,23.20
2023-05-04T13:19:37.124Z,20.30
2023-05-04T13:21:39.506Z,19.23
2023-05-04T13:23:41.615Z,20.17
2023-05-04T13:25:48.576Z,25.38
2023-05-04T13:27:53.752Z,23.35
2023-05-04T13:30:01.315Z,23.83
2023-05-04T13:32:04.004Z,23.83
2023-05-04T13:34:06.497Z,19.85
2023-05-04T13:36:09.033Z,24.60
2023-05-04T13:38:11.615Z,24.67
2023-05-04T13:40:15.791Z,23.98
2023-05-04T13:42:18.340Z,25.95
2023-05-04T13:44:20.826Z,28.38
2023-05-04T13:46:23.401Z,23.40
2023-05-04T13:48:28.559Z,23.17
2023-05-04T13:50:32.254Z,27.98
2023-05-04T13:52:34.753Z,23.20
2023-05-04T13:54:37.825Z,24.42
2023-05-04T13:56:39.942Z,32.40
2023-05-04T13:58:51.509Z,23.40
2023-05-04T14:01:10.806Z,25.30
2023-05-04T14:03:13.604Z,30.65
2023-05-04T14:05:16.176Z,29.50
2023-05-04T14:07:18.786Z,24.95
2023-05-04T14:09:21.262Z,27.20
2023-05-04T14:11:23.539Z,26.17
2023-05-04T14:13:26.094Z,26.95
2023-05-04T14:15:28.337Z,31.45
2023-05-04T14:17:30.752Z,29.92
2023-05-04T14:19:32.985Z,23.83
2023-05-04T14:21:36.248Z,34.10
2023-05-04T14:23:38.588Z,24.52
2023-05-04T14:25:42.656Z,24.35
2023-05-04T14:27:45.049Z,25.23
2023-05-04T14:30:00.182Z,27.65
2023-05-04T14:32:04.743Z,29.35
2023-05-04T14:34:07.189Z,25.27
2023-05-04T14:36:11.151Z,30.40
2023-05-04T14:38:13.820Z,29.02
2023-05-04T14:40:15.995Z,29.10
2023-05-04T14:42:18.150Z,33.63
2023-05-04T14:44:20.735Z,31.30
2023-05-04T14:46:22.983Z,30.50
2023-05-04T14:48:28.068Z,26.23
2023-05-04T14:50:38.688Z,29.95
2023-05-04T14:52:43.746Z,28.45
2023-05-04T14:54:46.016Z,29.73
2023-05-04T14:56:48.428Z,27.25
2023-05-04T14:58:50.743Z,29.27
2023-05-04T15:00:54.330Z,28.27
2023-05-04T15:02:56.586Z,31.85
2023-05-04T15:05:01.320Z,32.90
2023-05-04T15:07:04.886Z,26.27
2023-05-04T15:09:07.392Z,32.55
2023-05-04T15:11:10.034Z,28.42
2023-05-04T15:13:16.255Z,26.27
2023-05-04T15:15:19.476Z,26.83
2023-05-04T15:17:21.674Z,30.73
2023-05-04T15:19:25.489Z,26.80
2023-05-04T15:21:28.192Z,37.58
2023-05-04T15:23:30.470Z,28.05
2023-05-04T15:25:32.759Z,27.02
2023-05-04T15:27:35.400Z,26.85
2023-05-04T15:29:39.533Z,27.88
2023-05-04T15:32:08.078Z,28.08
2023-05-04T15:37:35.891Z,27.33
2023-05-04T15:39:38.693Z,23.33
2023-05-04T15:41:42.828Z,24.73
2023-05-04T15:43:45.392Z,27.15
2023-05-04T15:45:47.947Z,28.02
2023-05-04T15:47:51.435Z,27.63
2023-05-04T15:49:53.943Z,25.40
2023-05-04T15:51:56.684Z,25.42
2023-05-04T15:53:59.486Z,26.10
2023-05-04T15:56:05.006Z,30.83
2023-05-04T15:58:08.437Z,26.17
2023-05-04T16:00:11.944Z,25.63
2023-05-04T16:02:14.487Z,29.17
2023-05-04T16:04:17.459Z,28.70
2023-05-04T16:06:20.650Z,26.20
2023-05-04T16:08:24.067Z,28.15
2023-05-04T16:10:26.523Z,29.10
2023-05-04T16:12:29.306Z,31.25
2023-05-04T16:14:32.222Z,26.23
2023-05-04T16:16:34.809Z,22.83
2023-05-04T16:18:37.412Z,26.58
2023-05-04T16:20:40.135Z,30.10
2023-05-04T16:22:42.717Z,26.17
2023-05-04T16:24:45.504Z,22.88
2023-05-04T16:26:50.245Z,27.88
2023-05-04T16:28:53.142Z,27.23
2023-05-04T16:30:56.387Z,32.55
2023-05-04T16:32:59.520Z,25.38
2023-05-04T16:35:02.324Z,26.42
2023-05-04T16:37:04.758Z,23.67
2023-05-04T16:39:07.729Z,20.02
2023-05-04T16:41:10.452Z,20.55
2023-05-04T16:43:13.324Z,21.27
2023-05-04T16:45:16.766Z,24.23
2023-05-04T16:47:19.329Z,17.95
2023-05-04T16:49:22.357Z,18.90
2023-05-04T16:51:25.198Z,22.98
2023-05-04T16:53:28.384Z,16.60
2023-05-04T16:55:30.997Z,11.27
2023-05-04T16:57:34.076Z,14.18
2023-05-04T16:59:37.076Z,14.25
2023-05-04T17:01:39.926Z,14.57
2023-05-04T17:03:42.598Z,9.27
2023-05-04T17:05:45.409Z,8.18
2023-05-04T17:07:48.196Z,4.60
2023-05-04T17:09:50.925Z,6.72
2023-05-04T17:11:55.709Z,4.25
2023-05-04T17:13:59.549Z,5.07
2023-05-04T17:16:02.621Z,8.35
2023-05-04T17:18:05.431Z,3.90
2023-05-04T17:20:09.748Z,4.13
2023-05-04T17:22:12.582Z,3.20
2023-05-04T17:24:15.831Z,8.93
2023-05-04T17:26:18.447Z,6.80
2023-05-04T17:28:20.855Z,6.35
2023-05-04T17:30:24.252Z,4.70
2023-05-04T17:32:27.327Z,10.98
2023-05-04T17:34:29.964Z,3.47
2023-05-04T17:36:32.992Z,4.28
2023-05-04T17:38:35.549Z,3.65
2023-05-04T17:40:38.199Z,2.22
2023-05-04T17:42:41.013Z,5.38
2023-05-04T17:44:43.984Z,5.35
2023-05-04T17:46:47.804Z,6.05
2023-05-04T17:48:50.720Z,4.75
2023-05-04T17:50:53.926Z,4.75
2023-05-04T17:52:56.702Z,6.72
2023-05-04T17:54:59.317Z,5.82
2023-05-04T17:57:01.892Z,3.15
2023-05-04T17:59:04.483Z,3.10
2023-05-04T18:01:07.571Z,5.72
2023-05-04T18:03:11.019Z,4.57
2023-05-04T18:05:13.704Z,4.90
2023-05-04T18:07:16.447Z,4.10
2023-05-04T18:09:20.356Z,2.10
2023-05-04T18:11:22.910Z,2.95
2023-05-04T18:13:25.478Z,2.67
2023-05-04T18:15:28.096Z,5.63
2023-05-04T18:17:31.051Z,5.18
2023-05-04T18:19:34.630Z,3.58
2023-05-04T18:21:37.693Z,3.10
2023-05-04T18:23:40.005Z,5.47
2023-05-04T18:25:42.516Z,2.67
2023-05-04T18:27:44.890Z,3.55
2023-05-04T18:29:49.074Z,2.75
2023-05-04T18:31:51.397Z,4.35
2023-05-04T18:33:53.647Z,7.97
2023-05-04T18:35:55.724Z,6.63
2023-05-04T18:37:58.195Z,6.13
2023-05-04T18:40:00.993Z,3.90
2023-05-04T18:42:03.560Z,2.78
2023-05-04T18:44:06.225Z,4.88
2023-05-04T18:46:08.875Z,5.57
2023-05-04T18:48:11.412Z,4.75
2023-05-04T18:50:13.716Z,6.35
2023-05-04T18:52:16.251Z,4.00
2023-05-04T18:54:18.671Z,6.43
2023-05-04T18:56:20.997Z,8.10
2023-05-04T18:58:23.306Z,3.72
2023-05-04T19:00:25.918Z,5.10
2023-05-04T19:02:30.275Z,4.30
2023-05-04T19:04:33.051Z,3.10
2023-05-04T19:06:35.218Z,5.05
2023-05-04T19:08:37.393Z,4.85
2023-05-04T19:10:39.700Z,8.32
2023-05-04T19:12:41.875Z,4.70
2023-05-04T19:14:44.344Z,6.35
2023-05-04T19:16:46.584Z,3.78
2023-05-04T19:18:48.938Z,2.95
2023-05-04T19:20:51.467Z,6.32
2023-05-04T19:22:55.672Z,7.07
2023-05-04T19:24:57.773Z,5.65
2023-05-04T19:27:00.956Z,8.23
2023-05-04T19:29:03.783Z,7.18
2023-05-04T19:31:06.594Z,4.40
2023-05-04T19:33:09.078Z,5.00
2023-05-04T19:35:11.391Z,3.15
2023-05-04T19:37:13.785Z,3.97
2023-05-04T19:39:17.164Z,4.88
2023-05-04T19:41:19.483Z,6.88
2023-05-04T19:43:24.410Z,5.13
2023-05-04T19:45:26.780Z,6.38
2023-05-04T19:47:29.270Z,3.97
2023-05-04T19:49:31.481Z,9.18
2023-05-04T19:51:34.081Z,5.53
2023-05-04T19:53:36.880Z,7.82
2023-05-04T19:55:38.956Z,4.93
2023-05-04T19:57:41.272Z,5.93
2023-05-04T19:59:46.118Z,7.47
2023-05-04T20:01:49.082Z,4.30
2023-05-04T20:03:51.348Z,5.82
2023-05-04T20:05:56.178Z,5.50
2023-05-04T20:07:58.337Z,3.60
2023-05-04T20:10:00.656Z,3.55
2023-05-04T20:12:03.438Z,5.68
2023-05-04T20:14:06.048Z,1.38
2023-05-04T20:16:08.636Z,3.25
2023-05-04T20:18:10.821Z,4.80
2023-05-04T20:20:19.178Z,3.17
2023-05-04T20:22:21.610Z,5.05
2023-05-04T20:24:23.824Z,4.85
2023-05-04T20:26:26.084Z,5.25
2023-05-04T20:28:28.411Z,2.72
2023-05-04T20:30:30.528Z,4.30
2023-05-04T20:32:33.033Z,6.10
2023-05-04T20:34:36.140Z,3.50
2023-05-04T20:36:38.317Z,3.42
2023-05-04T20:38:40.462Z,3.88
2023-05-04T20:40:42.515Z,5.18
2023-05-04T20:42:44.696Z,4.82
2023-05-04T20:44:47.078Z,4.85
2023-05-04T20:46:49.310Z,4.85
2023-05-04T20:48:51.576Z,3.63
2023-05-04T20:51:02.774Z,4.22
2023-05-04T20:53:15.749Z,2.95
2023-05-04T20:55:18.042Z,4.38
2023-05-04T20:57:20.461Z,4.47
2023-05-04T20:59:22.565Z,3.25
2023-05-04T21:01:24.743Z,3.97
2023-05-04T21:03:26.993Z,9.02
2023-05-04T21:05:29.138Z,5.45
2023-05-04T21:07:31.600Z,3.63
2023-05-04T21:09:33.721Z,6.28
2023-05-04T21:11:35.707Z,5.30
2023-05-04T21:13:37.705Z,4.78
2023-05-04T21:15:39.813Z,3.47
2023-05-04T21:17:42.029Z,2.92
2023-05-04T21:19:44.185Z,3.53
2023-05-04T21:21:46.248Z,5.05
2023-05-04T21:23:48.339Z,5.00
2023-05-04T21:25:50.367Z,3.67
2023-05-04T21:27:52.414Z,6.35
2023-05-04T21:29:54.477Z,4.30
2023-05-04T21:31:57.688Z,8.35
2023-05-04T21:33:59.881Z,5.07
2023-05-04T21:36:08.211Z,2.63
2023-05-04T21:38:10.262Z,6.28
2023-05-04T21:40:12.518Z,5.15
2023-05-04T21:42:14.632Z,7.13
2023-05-04T21:44:16.663Z,6.00
2023-05-04T21:46:18.799Z,4.18
2023-05-04T21:48:20.933Z,3.88
2023-05-04T21:50:23.038Z,3.88
2023-05-04T21:52:24.980Z,3.00
2023-05-04T21:54:26.969Z,2.88
2023-05-04T21:56:29.126Z,5.40
2023-05-04T21:58:31.077Z,2.65
2023-05-04T22:00:33.377Z,4.03
2023-05-04T22:02:35.555Z,5.75
2023-05-04T22:04:37.705Z,2.05
2023-05-04T22:06:39.905Z,6.90
2023-05-04T22:08:42.004Z,5.22
2023-05-04T22:10:43.990Z,4.03
2023-05-04T22:12:46.109Z,4.00
2023-05-04T22:14:48.238Z,5.53
2023-05-04T22:16:50.407Z,3.25
2023-05-04T22:18:52.670Z,3.53
2023-05-04T22:20:54.651Z,6.75
2023-05-04T22:22:56.818Z,4.38
2023-05-04T22:24:58.961Z,3.28
2023-05-04T22:27:01.038Z,8.35
2023-05-04T22:29:03.841Z,5.07
2023-05-04T22:31:06.208Z,8.27
2023-05-04T22:33:08.485Z,2.15
2023-05-04T22:35:10.947Z,6.25
2023-05-04T22:37:12.900Z,4.88
2023-05-04T22:39:15.934Z,5.53
2023-05-04T22:41:18.242Z,4.43
2023-05-04T22:43:20.460Z,2.45
2023-05-04T22:45:22.563Z,2.33
2023-05-04T22:47:24.837Z,5.85
2023-05-04T22:49:26.775Z,7.40
2023-05-04T22:51:28.881Z,4.13
2023-05-04T22:53:30.989Z,5.28
2023-05-04T22:55:33.315Z,5.93
2023-05-04T22:57:35.586Z,2.78
2023-05-04T22:59:37.728Z,5.05
2023-05-04T23:01:43.592Z,3.60
2023-05-04T23:03:46.535Z,5.05
2023-05-04T23:05:48.919Z,3.05
2023-05-04T23:07:52.564Z,3.38
2023-05-04T23:09:54.597Z,3.25
2023-05-04T23:11:56.633Z,5.40
2023-05-04T23:13:58.634Z,4.47
2023-05-04T23:16:00.828Z,5.95
2023-05-04T23:18:02.856Z,3.03
2023-05-04T23:20:08.220Z,5.72
2023-05-04T23:22:10.716Z,4.68
2023-05-04T23:24:13.017Z,3.10
2023-05-04T23:26:16.395Z,4.20
2023-05-04T23:28:18.506Z,4.03
2023-05-04T23:30:20.537Z,3.65
2023-05-04T23:32:22.622Z,3.03
2023-05-04T23:34:24.743Z,2.92
2023-05-04T23:36:27.764Z,3.70
2023-05-04T23:38:29.719Z,4.82
2023-05-04T23:40:31.906Z,3.20
2023-05-04T23:42:33.857Z,3.67
2023-05-04T23:44:36.245Z,2.78
2023-05-04T23:46:38.373Z,2.80
2023-05-04T23:48:40.450Z,6.70
2023-05-04T23:50:52.832Z,3.20
2023-05-04T23:52:54.828Z,4.82
2023-05-04T23:54:56.746Z,3.35
2023-05-04T23:56:59.384Z,5.68
2023-05-04T23:59:01.486Z,4.13
